createdAt,value
2023-04-14T00:01:35.765Z,14.80
2023-04-14T00:04:05.270Z,17.70
2023-04-14T00:06:33.883Z,13.70
2023-04-14T00:09:02.330Z,14.90
2023-04-14T00:11:31.083Z,15.50
2023-04-14T00:14:01.463Z,16.90
2023-04-14T00:16:32.948Z,14.90
2023-04-14T00:19:02.816Z,15.10
2023-04-14T00:21:31.913Z,15.00
2023-04-14T00:24:03.081Z,14.10
2023-04-14T00:26:34.583Z,15.90
2023-04-14T00:29:03.029Z,15.60
2023-04-14T00:31:35.659Z,17.00
2023-04-14T00:34:06.208Z,16.60
2023-04-14T00:36:35.183Z,14.30
2023-04-14T00:39:05.060Z,14.50
2023-04-14T00:41:36.591Z,15.60
2023-04-14T00:44:05.610Z,15.20
2023-04-14T00:46:33.908Z,16.00
2023-04-14T00:49:02.837Z,14.10
2023-04-14T00:51:32.487Z,15.90
2023-04-14T00:54:02.963Z,15.70
2023-04-14T00:56:31.931Z,12.60
2023-04-14T00:59:02.761Z,13.60
2023-04-14T01:01:31.825Z,13.00
2023-04-14T01:04:01.013Z,15.00
2023-04-14T01:06:30.179Z,15.40
2023-04-14T01:08:58.686Z,14.30
2023-04-14T01:12:09.246Z,14.30
2023-04-14T01:14:59.876Z,13.80
2023-04-14T01:17:36.948Z,13.60
2023-04-14T01:20:17.684Z,15.00
2023-04-14T01:23:13.934Z,14.80
2023-04-14T01:25:56.967Z,14.10
2023-04-14T01:29:01.751Z,12.80
2023-04-14T01:31:38.452Z,14.30
2023-04-14T01:34:11.853Z,13.20
2023-04-14T01:36:57.132Z,15.90
2023-04-14T01:39:27.864Z,12.60
2023-04-14T01:41:58.469Z,15.40
2023-04-14T01:44:27.093Z,14.30
2023-04-14T01:46:57.667Z,15.70
2023-04-14T01:49:27.003Z,14.60
2023-04-14T01:51:56.917Z,14.30
2023-04-14T01:54:25.633Z,14.10
2023-04-14T01:56:53.979Z,13.40
2023-04-14T01:59:23.134Z,14.10
2023-04-14T02:01:51.557Z,15.30
2023-04-14T02:04:21.832Z,12.60
2023-04-14T02:08:49.735Z,13.10
2023-04-14T02:11:19.156Z,13.30
2023-04-14T02:13:48.836Z,12.90
2023-04-14T02:16:18.234Z,12.00
2023-04-14T02:18:46.948Z,12.30
2023-04-14T02:21:19.008Z,12.10
2023-04-14T02:23:48.119Z,12.60
2023-04-14T02:26:18.774Z,14.00
2023-04-14T02:29:09.733Z,14.20
2023-04-14T02:31:42.284Z,13.90
2023-04-14T02:34:12.579Z,15.00
2023-04-14T02:36:58.356Z,15.60
2023-04-14T02:39:32.427Z,15.80
2023-04-14T02:42:06.105Z,15.70
2023-04-14T02:44:36.447Z,17.60
2023-04-14T02:47:07.871Z,15.00
2023-04-14T02:49:42.918Z,15.10
2023-04-14T02:52:12.861Z,15.70
2023-04-14T02:54:42.747Z,15.20
2023-04-14T02:57:11.368Z,15.30
2023-04-14T02:59:42.602Z,16.20
2023-04-14T03:02:12.842Z,15.80
2023-04-14T03:04:45.730Z,15.80
2023-04-14T03:07:21.932Z,15.40
2023-04-14T03:09:50.960Z,15.10
2023-04-14T03:12:20.625Z,15.10
2023-04-14T03:14:49.357Z,14.60
2023-04-14T03:17:20.384Z,16.70
2023-04-14T03:19:49.677Z,14.80
2023-04-14T03:22:19.890Z,15.60
2023-04-14T03:24:48.543Z,14.80
2023-04-14T03:27:26.411Z,13.80
2023-04-14T03:29:57.027Z,15.00
2023-04-14T03:32:37.140Z,13.30
2023-04-14T03:35:07.282Z,13.20
2023-04-14T03:37:38.688Z,13.60
2023-04-14T03:40:08.713Z,14.10
2023-04-14T03:42:39.844Z,12.50
2023-04-14T03:45:09.525Z,13.70
2023-04-14T03:47:40.733Z,14.30
2023-04-14T03:50:10.554Z,12.30
2023-04-14T03:52:38.821Z,14.70
2023-04-14T03:55:08.685Z,14.00
2023-04-14T03:57:38.612Z,12.90
2023-04-14T04:00:09.456Z,14.30
2023-04-14T04:02:47.874Z,12.00
2023-04-14T04:05:16.935Z,12.00
2023-04-14T04:07:45.582Z,13.30
2023-04-14T04:10:16.632Z,12.70
2023-04-14T04:12:45.192Z,13.40
2023-04-14T04:15:22.245Z,12.50
2023-04-14T04:17:51.497Z,14.40
2023-04-14T04:20:19.934Z,13.00
2023-04-14T04:22:49.980Z,12.50
2023-04-14T04:25:18.735Z,11.70
2023-04-14T04:27:53.331Z,13.30
2023-04-14T04:30:23.073Z,12.20
2023-04-14T04:32:52.360Z,11.50
2023-04-14T04:35:20.635Z,14.00
2023-04-14T04:37:48.858Z,12.70
2023-04-14T04:40:17.473Z,14.10
2023-04-14T04:42:48.019Z,12.70
2023-04-14T04:45:47.256Z,17.60
2023-04-14T04:48:15.998Z,21.00
2023-04-14T04:50:45.504Z,19.90
2023-04-14T04:53:14.259Z,18.20
2023-04-14T04:55:43.512Z,16.70
2023-04-14T04:58:12.125Z,18.70
2023-04-14T05:00:40.396Z,20.00
2023-04-14T05:03:19.623Z,19.80
2023-04-14T05:05:47.910Z,23.50
2023-04-14T05:08:16.497Z,22.60
2023-04-14T05:10:45.040Z,20.70
2023-04-14T05:13:13.287Z,20.90
2023-04-14T05:15:41.506Z,27.20
2023-04-14T05:18:09.797Z,26.90
2023-04-14T05:20:38.425Z,23.00
2023-04-14T05:23:06.919Z,23.10
2023-04-14T05:25:35.802Z,19.40
2023-04-14T05:28:05.118Z,17.20
2023-04-14T05:30:33.417Z,25.50
2023-04-14T05:33:01.952Z,35.90
2023-04-14T05:35:31.321Z,34.90
2023-04-14T05:37:59.922Z,21.60
2023-04-14T05:40:30.269Z,15.60
2023-04-14T05:42:59.428Z,12.90
2023-04-14T05:45:27.952Z,10.60
2023-04-14T05:47:57.848Z,11.10
2023-04-14T05:50:27.163Z,9.10
2023-04-14T05:52:55.735Z,11.90
2023-04-14T05:55:25.608Z,12.50
2023-04-14T05:57:54.194Z,9.60
2023-04-14T06:00:25.302Z,8.90
2023-04-14T06:02:55.834Z,9.90
2023-04-14T06:05:25.452Z,10.60
2023-04-14T06:07:54.068Z,13.20
2023-04-14T06:10:27.563Z,19.10
2023-04-14T06:12:57.317Z,27.70
2023-04-14T06:15:28.464Z,31.40
2023-04-14T06:18:00.229Z,30.00
2023-04-14T06:20:31.869Z,29.00
2023-04-14T06:23:01.370Z,27.20
2023-04-14T06:25:29.828Z,23.10
2023-04-14T06:28:03.793Z,32.40
2023-04-14T06:30:32.529Z,39.30
2023-04-14T06:33:04.612Z,52.70
2023-04-14T06:35:35.315Z,58.50
2023-04-14T06:38:03.570Z,50.20
2023-04-14T06:40:32.156Z,41.40
2023-04-14T06:43:00.451Z,33.60
2023-04-14T06:45:31.234Z,18.50
2023-04-14T06:48:00.116Z,15.10
2023-04-14T06:50:28.481Z,21.70
2023-04-14T06:52:57.478Z,18.70
2023-04-14T06:55:25.842Z,25.10
2023-04-14T06:57:58.109Z,29.80
2023-04-14T07:00:26.835Z,23.00
2023-04-14T07:02:55.335Z,14.20
2023-04-14T07:05:23.966Z,11.70
2023-04-14T07:07:52.776Z,12.10
2023-04-14T07:10:21.219Z,8.60
2023-04-14T07:12:49.934Z,9.30
2023-04-14T07:15:19.865Z,8.40
2023-04-14T07:17:48.932Z,10.80
2023-04-14T07:20:17.324Z,15.50
2023-04-14T07:22:45.832Z,14.90
2023-04-14T07:25:14.433Z,13.70
2023-04-14T07:27:49.915Z,11.00
2023-04-14T07:30:29.940Z,10.40
2023-04-14T07:33:01.028Z,14.30
2023-04-14T07:35:29.565Z,23.90
2023-04-14T07:37:58.454Z,24.50
2023-04-14T07:40:27.320Z,27.40
2023-04-14T07:42:55.765Z,34.40
2023-04-14T07:45:24.430Z,25.70
2023-04-14T07:47:53.834Z,19.80
2023-04-14T07:50:24.008Z,18.70
2023-04-14T07:52:52.240Z,14.80
2023-04-14T07:55:20.901Z,13.60
2023-04-14T07:57:51.851Z,12.30
2023-04-14T08:00:20.443Z,14.50
2023-04-14T08:02:49.699Z,15.70
2023-04-14T08:05:18.416Z,9.30
2023-04-14T08:07:49.644Z,9.40
2023-04-14T08:10:18.301Z,8.60
2023-04-14T08:12:47.245Z,7.60
2023-04-14T08:15:16.535Z,7.50
2023-04-14T08:17:45.317Z,8.70
2023-04-14T08:20:14.347Z,7.60
2023-04-14T08:22:43.558Z,8.80
2023-04-14T08:25:12.605Z,7.70
2023-04-14T08:27:41.635Z,9.40
2023-04-14T08:30:11.519Z,10.40
2023-04-14T08:32:42.169Z,10.30
2023-04-14T08:35:37.567Z,15.10
2023-04-14T08:38:01.513Z,17.10
2023-04-14T08:40:42.756Z,16.40
2023-04-14T08:43:14.547Z,21.90
2023-04-14T08:45:43.930Z,17.00
2023-04-14T08:48:13.098Z,13.30
2023-04-14T08:50:46.177Z,13.40
2023-04-14T08:53:18.788Z,16.10
2023-04-14T08:55:48.705Z,13.50
2023-04-14T08:58:17.430Z,12.80
2023-04-14T09:00:49.380Z,14.80
2023-04-14T09:03:19.246Z,13.30
2023-04-14T09:05:48.113Z,13.00
2023-04-14T09:08:16.273Z,10.80
2023-04-14T09:10:45.432Z,11.40
2023-04-14T09:13:15.574Z,10.50
2023-04-14T09:15:43.878Z,8.50
2023-04-14T09:18:14.665Z,9.00
2023-04-14T09:20:42.959Z,9.10
2023-04-14T09:23:11.923Z,11.80
2023-04-14T09:25:44.243Z,11.50
2023-04-14T09:28:12.684Z,10.20
2023-04-14T09:30:41.833Z,9.10
2023-04-14T09:35:55.502Z,8.20
2023-04-14T09:38:35.799Z,13.20
2023-04-14T09:41:07.928Z,9.40
2023-04-14T09:43:37.051Z,8.40
2023-04-14T09:46:07.923Z,7.90
2023-04-14T09:48:41.116Z,7.70
2023-04-14T09:51:14.219Z,8.10
2023-04-14T09:53:48.063Z,7.90
2023-04-14T09:56:17.910Z,8.40
2023-04-14T09:58:50.666Z,9.80
2023-04-14T10:01:19.748Z,8.90
2023-04-14T10:03:49.758Z,8.60
2023-04-14T10:06:20.582Z,8.60
2023-04-14T10:08:53.612Z,8.10
2023-04-14T10:11:35.479Z,11.30
2023-04-14T10:14:05.532Z,9.70
2023-04-14T10:16:34.433Z,9.30
2023-04-14T10:19:03.938Z,6.50
2023-04-14T10:21:36.761Z,8.30
2023-04-14T10:24:05.767Z,10.10
2023-04-14T10:26:36.311Z,13.70
2023-04-14T10:29:06.255Z,11.00
2023-04-14T10:31:37.119Z,10.00
2023-04-14T10:34:13.882Z,10.30
2023-04-14T10:36:43.567Z,14.90
2023-04-14T10:39:12.455Z,13.80
2023-04-14T10:41:44.085Z,11.60
2023-04-14T10:44:32.466Z,10.40
2023-04-14T10:47:02.586Z,10.40
2023-04-14T10:49:31.747Z,6.90
2023-04-14T10:52:05.159Z,8.10
2023-04-14T10:54:54.587Z,6.50
2023-04-14T10:57:23.864Z,6.60
2023-04-14T11:00:00.235Z,5.90
2023-04-14T11:02:31.679Z,5.60
2023-04-14T11:05:09.409Z,7.20
2023-04-14T11:07:46.350Z,6.50
2023-04-14T11:10:21.726Z,6.40
2023-04-14T11:13:13.021Z,5.90
2023-04-14T11:15:46.936Z,8.20
2023-04-14T11:18:17.684Z,7.30
2023-04-14T11:20:46.057Z,8.50
2023-04-14T11:23:19.416Z,7.70
2023-04-14T11:25:48.785Z,7.90
2023-04-14T11:28:18.247Z,6.40
2023-04-14T11:30:47.093Z,7.20
2023-04-14T11:33:15.607Z,6.50
2023-04-14T11:35:43.915Z,5.30
2023-04-14T11:38:12.305Z,5.60
2023-04-14T11:40:40.849Z,4.60
2023-04-14T11:43:10.390Z,6.30
2023-04-14T11:45:48.009Z,5.30
2023-04-14T11:48:17.938Z,5.00
2023-04-14T11:50:47.835Z,5.70
2023-04-14T11:53:17.741Z,5.00
2023-04-14T11:55:50.064Z,4.80
2023-04-14T11:58:24.011Z,5.30
2023-04-14T12:00:55.643Z,5.10
2023-04-14T12:03:37.138Z,6.90
2023-04-14T12:06:05.824Z,7.00
2023-04-14T12:08:34.218Z,6.30
2023-04-14T12:11:16.564Z,6.10
2023-04-14T12:13:46.710Z,5.80
2023-04-14T12:16:16.147Z,8.00
2023-04-14T12:18:47.463Z,7.00
2023-04-14T12:21:19.236Z,6.70
2023-04-14T12:23:50.797Z,9.70
2023-04-14T12:26:25.786Z,6.70
2023-04-14T12:28:57.974Z,6.50
2023-04-14T12:31:32.383Z,5.80
2023-04-14T12:34:04.072Z,7.30
2023-04-14T12:36:48.714Z,8.20
2023-04-14T12:39:22.569Z,8.20
2023-04-14T12:41:50.802Z,7.00
2023-04-14T12:44:20.865Z,6.00
2023-04-14T12:46:51.040Z,5.70
2023-04-14T12:49:33.129Z,5.80
2023-04-14T12:52:01.350Z,7.40
2023-04-14T12:54:50.293Z,6.90
2023-04-14T12:57:23.717Z,6.40
2023-04-14T12:59:53.025Z,5.50
2023-04-14T13:02:22.714Z,6.30
2023-04-14T13:04:51.369Z,6.30
2023-04-14T13:07:20.477Z,6.30
2023-04-14T13:09:48.881Z,7.50
2023-04-14T13:19:55.662Z,6.40
2023-04-14T13:22:25.156Z,6.30
2023-04-14T13:24:53.513Z,7.40
2023-04-14T13:27:21.956Z,7.20
2023-04-14T13:32:23.961Z,5.00
2023-04-14T13:34:52.837Z,4.10
2023-04-14T13:37:22.460Z,5.20
2023-04-14T13:39:51.079Z,3.80
2023-04-14T13:42:19.560Z,5.20
2023-04-14T13:44:48.358Z,6.50
2023-04-14T13:47:19.045Z,4.30
2023-04-14T13:49:47.592Z,4.00
2023-04-14T13:52:15.916Z,4.10
2023-04-14T13:54:46.617Z,6.70
2023-04-14T13:57:14.826Z,4.20
2023-04-14T13:59:43.392Z,4.90
2023-04-14T14:02:11.712Z,4.70
2023-04-14T14:04:42.315Z,5.30
2023-04-14T14:07:10.965Z,4.60
2023-04-14T14:09:39.138Z,5.10
2023-04-14T14:12:11.018Z,5.10
2023-04-14T14:14:39.280Z,6.00
2023-04-14T14:17:08.440Z,6.40
2023-04-14T14:19:37.900Z,4.60
2023-04-14T14:22:07.698Z,6.00
2023-04-14T14:26:36.195Z,6.40
2023-04-14T14:29:05.441Z,9.90
2023-04-14T14:31:34.918Z,6.50
2023-04-14T14:34:03.676Z,6.90
2023-04-14T14:36:33.039Z,5.70
2023-04-14T14:39:03.694Z,4.70
2023-04-14T14:41:33.822Z,4.40
2023-04-14T14:44:02.160Z,3.90
2023-04-14T14:46:36.931Z,5.30
2023-04-14T14:49:05.666Z,4.50
2023-04-14T14:51:34.144Z,6.00
2023-04-14T14:54:09.791Z,12.90
2023-04-14T14:56:38.960Z,5.70
2023-04-14T14:59:08.695Z,5.50
2023-04-14T15:01:37.394Z,5.80
2023-04-14T15:04:06.789Z,7.80
2023-04-14T15:06:36.597Z,5.30
2023-04-14T15:09:05.906Z,4.30
2023-04-14T15:14:07.788Z,4.70
2023-04-14T15:16:36.150Z,5.00
2023-04-14T15:19:12.613Z,4.60
2023-04-14T15:21:43.607Z,5.70
2023-04-14T15:24:12.099Z,4.10
2023-04-14T15:26:40.587Z,3.60
2023-04-14T15:29:09.106Z,5.60
2023-04-14T15:31:37.784Z,4.20
2023-04-14T15:34:07.138Z,4.80
2023-04-14T15:36:36.160Z,4.50
2023-04-14T15:39:04.417Z,5.00
2023-04-14T15:41:33.089Z,4.90
2023-04-14T15:44:02.514Z,4.80
2023-04-14T15:46:31.947Z,4.10
2023-04-14T15:49:03.549Z,5.40
2023-04-14T15:51:32.749Z,4.60
2023-04-14T15:54:01.590Z,4.40
2023-04-14T15:56:31.636Z,4.20
2023-04-14T15:59:02.181Z,4.60
2023-04-14T16:01:31.089Z,4.30
2023-04-14T16:04:00.873Z,3.90
2023-04-14T16:06:30.779Z,4.20
2023-04-14T16:09:02.983Z,3.70
2023-04-14T16:11:31.594Z,4.80
2023-04-14T16:14:03.780Z,4.50
2023-04-14T16:16:32.848Z,4.70
2023-04-14T16:19:01.659Z,6.30
2023-04-14T16:21:34.579Z,4.20
2023-04-14T16:24:03.982Z,4.50
2023-04-14T16:26:33.347Z,4.90
2023-04-14T16:29:02.911Z,5.70
2023-04-14T16:31:33.249Z,6.00
2023-04-14T16:34:02.145Z,6.40
2023-04-14T16:36:32.212Z,7.90
2023-04-14T16:39:01.938Z,22.10
2023-04-14T16:41:30.724Z,19.80
2023-04-14T16:44:00.551Z,19.80
2023-04-14T16:46:30.049Z,14.30
2023-04-14T16:48:59.131Z,9.50
2023-04-14T16:51:35.063Z,10.50
2023-04-14T16:54:04.853Z,11.90
2023-04-14T16:56:36.942Z,13.50
2023-04-14T16:59:07.930Z,8.20
2023-04-14T17:01:36.614Z,7.70
2023-04-14T17:04:05.724Z,8.00
2023-04-14T17:06:37.073Z,6.40
2023-04-14T17:09:07.070Z,5.90
2023-04-14T17:11:35.525Z,4.60
2023-04-14T17:14:04.068Z,5.50
2023-04-14T17:16:35.689Z,4.20
2023-04-14T17:19:04.671Z,4.70
2023-04-14T17:21:33.568Z,5.70
2023-04-14T17:24:06.004Z,4.30
2023-04-14T17:26:35.241Z,5.00
2023-04-14T17:29:04.403Z,7.10
2023-04-14T17:31:33.506Z,6.80
2023-04-14T17:34:02.071Z,9.20
2023-04-14T17:36:31.035Z,6.50
2023-04-14T17:39:00.720Z,5.10
2023-04-14T17:41:29.445Z,6.30
2023-04-14T17:44:01.059Z,5.60
2023-04-14T17:46:33.984Z,4.90
2023-04-14T17:49:04.060Z,5.10
2023-04-14T17:51:35.782Z,4.30
2023-04-14T17:54:05.701Z,5.30
2023-04-14T17:56:37.182Z,5.60
2023-04-14T17:59:07.112Z,5.70
2023-04-14T18:01:36.378Z,6.80
2023-04-14T18:04:05.497Z,5.20
2023-04-14T18:06:35.262Z,6.70
2023-04-14T18:09:05.794Z,7.70
2023-04-14T18:11:39.505Z,6.00
2023-04-14T18:14:07.963Z,6.50
2023-04-14T18:16:41.497Z,8.10
2023-04-14T18:19:12.707Z,11.70
2023-04-14T18:21:43.228Z,7.60
2023-04-14T18:26:45.153Z,7.00
2023-04-14T18:29:13.451Z,6.90
2023-04-14T18:31:42.888Z,7.50
2023-04-14T18:34:20.956Z,5.70
2023-04-14T18:36:52.088Z,5.80
2023-04-14T18:39:20.916Z,4.30
2023-04-14T18:41:50.307Z,4.00
2023-04-14T18:44:18.901Z,3.60
2023-04-14T18:46:47.261Z,4.40
2023-04-14T18:49:15.751Z,3.90
2023-04-14T18:51:45.486Z,3.70
2023-04-14T18:54:14.891Z,4.40
2023-04-14T18:56:43.617Z,4.30
2023-04-14T18:59:12.798Z,4.30
2023-04-14T19:01:43.118Z,4.10
2023-04-14T19:04:11.425Z,4.30
2023-04-14T19:06:43.266Z,4.50
2023-04-14T19:09:11.913Z,3.90
2023-04-14T19:11:42.461Z,4.10
2023-04-14T19:14:13.102Z,4.00
2023-04-14T19:16:41.326Z,4.20
2023-04-14T19:19:09.958Z,5.20
2023-04-14T19:21:39.344Z,4.00
2023-04-14T19:24:08.598Z,4.10
2023-04-14T19:26:40.768Z,5.20
2023-04-14T19:29:12.998Z,6.20
2023-04-14T19:31:41.758Z,5.70
2023-04-14T19:34:10.421Z,7.00
2023-04-14T19:36:40.477Z,6.00
2023-04-14T19:39:09.550Z,5.80
2023-04-14T19:41:39.206Z,6.70
2023-04-14T19:44:08.819Z,7.10
2023-04-14T19:46:37.468Z,5.70
2023-04-14T19:49:08.419Z,5.90
2023-04-14T19:51:37.748Z,6.10
2023-04-14T19:54:09.268Z,5.90
2023-04-14T19:56:38.555Z,7.10
2023-04-14T19:59:08.462Z,6.00
2023-04-14T20:01:37.286Z,4.80
2023-04-14T20:04:11.731Z,5.20
2023-04-14T20:06:41.704Z,6.20
2023-04-14T20:09:10.496Z,4.20
2023-04-14T20:11:39.366Z,4.60
2023-04-14T20:14:07.976Z,4.20
2023-04-14T20:16:40.890Z,4.60
2023-04-14T20:19:09.738Z,5.60
2023-04-14T20:21:38.911Z,4.20
2023-04-14T20:24:07.369Z,4.20
2023-04-14T20:26:42.912Z,6.30
2023-04-14T20:29:16.285Z,6.10
2023-04-14T20:31:45.218Z,5.60
2023-04-14T20:34:17.055Z,6.00
2023-04-14T20:36:46.624Z,5.50
2023-04-14T20:39:15.329Z,6.00
2023-04-14T20:41:46.718Z,5.60
2023-04-14T20:44:16.231Z,6.40
2023-04-14T20:46:44.488Z,6.70
2023-04-14T20:49:13.552Z,7.90
2023-04-14T20:51:42.682Z,6.90
2023-04-14T20:54:11.232Z,8.20
2023-04-14T20:56:40.310Z,7.20
2023-04-14T20:59:10.484Z,5.80
2023-04-14T21:01:39.049Z,4.90
2023-04-14T21:04:07.300Z,4.20
2023-04-14T21:06:38.930Z,3.30
2023-04-14T21:09:07.458Z,3.30
2023-04-14T21:11:37.300Z,3.50
2023-04-14T21:15:40.375Z,3.40
2023-04-14T21:16:56.371Z,7.00
2023-04-14T21:19:27.408Z,3.60
2023-04-14T21:21:56.049Z,4.30
2023-04-14T21:24:25.316Z,4.40
2023-04-14T21:26:54.138Z,4.00
2023-04-14T21:29:23.690Z,4.40
2023-04-14T21:31:53.935Z,5.40
2023-04-14T21:34:22.233Z,5.40
2023-04-14T21:36:51.423Z,6.50
2023-04-14T21:39:20.636Z,7.40
2023-04-14T21:41:49.506Z,8.40
2023-04-14T21:44:18.899Z,6.10
2023-04-14T21:46:47.157Z,6.20
2023-04-14T21:49:17.285Z,7.90
2023-04-14T21:51:45.573Z,7.00
2023-04-14T21:54:15.037Z,6.00
2023-04-14T21:56:43.492Z,5.20
2023-04-14T21:59:11.730Z,4.30
2023-04-14T22:01:41.380Z,6.50
2023-04-14T22:04:14.538Z,4.00
2023-04-14T22:06:48.098Z,3.40
2023-04-14T22:09:17.068Z,3.40
2023-04-14T22:11:45.941Z,2.80
2023-04-14T22:14:14.184Z,3.30
2023-04-14T22:16:45.215Z,3.20
2023-04-14T22:19:14.800Z,4.00
2023-04-14T22:21:43.800Z,3.60
2023-04-14T22:24:12.849Z,3.40
2023-04-14T22:26:42.323Z,3.00
2023-04-14T22:29:11.673Z,3.40
2023-04-14T22:31:40.496Z,2.90
2023-04-14T22:34:10.432Z,2.60
2023-04-14T22:36:38.792Z,2.90
2023-04-14T22:39:07.555Z,3.30
2023-04-14T22:41:37.457Z,3.60
2023-04-14T22:44:06.927Z,3.20
2023-04-14T22:46:35.671Z,4.20
2023-04-14T22:49:04.588Z,3.60
2023-04-14T22:51:33.535Z,5.30
2023-04-14T22:54:04.936Z,6.20
2023-04-14T22:56:33.567Z,7.40
2023-04-14T22:59:02.614Z,8.90
2023-04-14T23:01:31.730Z,8.30
2023-04-14T23:04:00.602Z,7.30
2023-04-14T23:06:29.304Z,7.50
2023-04-14T23:08:59.898Z,7.40
2023-04-14T23:11:30.548Z,8.40
2023-04-14T23:13:58.735Z,6.40
2023-04-14T23:16:29.059Z,7.90
2023-04-14T23:19:07.304Z,7.10
2023-04-14T23:21:35.640Z,7.00
2023-04-14T23:24:04.354Z,9.20
2023-04-14T23:26:43.238Z,6.80
2023-04-14T23:29:12.457Z,5.60
2023-04-14T23:31:40.848Z,5.60
2023-04-14T23:34:12.933Z,5.30
2023-04-14T23:36:41.934Z,4.70
2023-04-14T23:39:10.545Z,4.60
2023-04-14T23:41:41.993Z,4.90
2023-04-14T23:44:10.690Z,3.90
2023-04-14T23:46:39.925Z,5.10
2023-04-14T23:49:24.539Z,3.80
2023-04-14T23:51:57.078Z,4.70
2023-04-14T23:54:26.210Z,3.70
2023-04-14T23:56:55.073Z,4.20
2023-04-14T23:59:24.099Z,5.00
